sensor_id;sensor_type;location;lat;lon;timestamp;P1;durP1;ratioP1;P2;durP2;ratioP2
76094;SDS011;64821;13.710;100.604;2023-05-29T00:00:03;13.52;;;8.48;;
76094;SDS011;64821;13.710;100.604;2023-05-29T00:01:07;13.77;;;8.50;;
76094;SDS011;64821;13.710;100.604;2023-05-29T00:02:11;12.88;;;8.63;;
76094;SDS011;64821;13.710;100.604;2023-05-29T00:03:14;11.73;;;8.35;;
76094;SDS011;64821;13.710;100.604;2023-05-29T00:04:18;15.93;;;8.75;;
76094;SDS011;64821;13.710;100.604;2023-05-29T00:05:22;13.45;;;8.77;;
76094;SDS011;64821;13.710;100.604;2023-05-29T00:06:26;11.93;;;8.57;;
76094;SDS011;64821;13.710;100.604;2023-05-29T00:07:29;14.15;;;8.98;;
76094;SDS011;64821;13.710;100.604;2023-05-29T00:08:33;13.38;;;8.80;;
76094;SDS011;64821;13.710;100.604;2023-05-29T00:09:37;14.25;;;8.95;;
76094;SDS011;64821;13.710;100.604;2023-05-29T00:10:40;12.80;;;8.70;;
76094;SDS011;64821;13.710;100.604;2023-05-29T00:11:44;12.77;;;8.50;;
76094;SDS011;64821;13.710;100.604;2023-05-29T00:12:47;14.13;;;9.20;;
76094;SDS011;64821;13.710;100.604;2023-05-29T00:13:53;13.88;;;9.07;;
76094;SDS011;64821;13.710;100.604;2023-05-29T00:14:56;15.70;;;9.20;;
76094;SDS011;64821;13.710;100.604;2023-05-29T00:16:00;12.43;;;8.57;;
76094;SDS011;64821;13.710;100.604;2023-05-29T00:17:04;15.47;;;9.37;;
76094;SDS011;64821;13.710;100.604;2023-05-29T00:18:08;16.85;;;9.27;;
76094;SDS011;64821;13.710;100.604;2023-05-29T00:19:11;14.82;;;9.20;;
76094;SDS011;64821;13.710;100.604;2023-05-29T00:20:16;13.93;;;9.38;;
76094;SDS011;64821;13.710;100.604;2023-05-29T00:21:19;14.43;;;9.48;;
76094;SDS011;64821;13.710;100.604;2023-05-29T00:22:23;14.67;;;10.00;;
76094;SDS011;64821;13.710;100.604;2023-05-29T00:23:30;13.75;;;9.57;;
76094;SDS011;64821;13.710;100.604;2023-05-29T00:24:33;15.40;;;10.00;;
76094;SDS011;64821;13.710;100.604;2023-05-29T00:25:37;14.00;;;8.90;;
76094;SDS011;64821;13.710;100.604;2023-05-29T00:26:40;14.13;;;9.75;;
76094;SDS011;64821;13.710;100.604;2023-05-29T00:27:44;15.30;;;9.27;;
76094;SDS011;64821;13.710;100.604;2023-05-29T00:28:48;14.80;;;9.70;;
76094;SDS011;64821;13.710;100.604;2023-05-29T00:29:53;15.15;;;9.50;;
76094;SDS011;64821;13.710;100.604;2023-05-29T00:30:57;15.07;;;9.13;;
76094;SDS011;64821;13.710;100.604;2023-05-29T00:32:01;14.07;;;9.63;;
76094;SDS011;64821;13.710;100.604;2023-05-29T00:33:05;13.73;;;9.47;;
76094;SDS011;64821;13.710;100.604;2023-05-29T00:34:09;15.05;;;9.98;;
76094;SDS011;64821;13.710;100.604;2023-05-29T00:35:12;17.13;;;10.13;;
76094;SDS011;64821;13.710;100.604;2023-05-29T00:36:16;17.55;;;10.18;;
76094;SDS011;64821;13.710;100.604;2023-05-29T00:37:20;15.45;;;10.65;;
76094;SDS011;64821;13.710;100.604;2023-05-29T00:38:23;15.70;;;10.10;;
76094;SDS011;64821;13.710;100.604;2023-05-29T00:39:27;13.98;;;9.73;;
76094;SDS011;64821;13.710;100.604;2023-05-29T00:40:31;15.65;;;10.23;;
76094;SDS011;64821;13.710;100.604;2023-05-29T00:41:35;15.65;;;10.98;;
76094;SDS011;64821;13.710;100.604;2023-05-29T00:42:38;14.57;;;10.57;;
76094;SDS011;64821;13.710;100.604;2023-05-29T00:43:42;14.23;;;10.33;;
76094;SDS011;64821;13.710;100.604;2023-05-29T00:44:46;14.88;;;10.18;;
76094;SDS011;64821;13.710;100.604;2023-05-29T00:45:51;15.27;;;10.30;;
76094;SDS011;64821;13.710;100.604;2023-05-29T00:46:55;17.52;;;10.80;;
76094;SDS011;64821;13.710;100.604;2023-05-29T00:47:59;15.30;;;10.43;;
76094;SDS011;64821;13.710;100.604;2023-05-29T00:49:03;15.20;;;10.57;;
76094;SDS011;64821;13.710;100.604;2023-05-29T00:50:08;15.68;;;10.80;;
76094;SDS011;64821;13.710;100.604;2023-05-29T00:51:13;15.93;;;10.13;;
76094;SDS011;64821;13.710;100.604;2023-05-29T00:52:18;15.30;;;11.18;;
76094;SDS011;64821;13.710;100.604;2023-05-29T00:53:22;14.45;;;11.07;;
76094;SDS011;64821;13.710;100.604;2023-05-29T00:54:27;16.67;;;10.90;;
76094;SDS011;64821;13.710;100.604;2023-05-29T00:55:32;16.20;;;10.75;;
76094;SDS011;64821;13.710;100.604;2023-05-29T00:56:38;16.40;;;11.18;;
76094;SDS011;64821;13.710;100.604;2023-05-29T00:57:43;15.90;;;11.00;;
76094;SDS011;64821;13.710;100.604;2023-05-29T00:58:47;18.23;;;11.10;;
76094;SDS011;64821;13.710;100.604;2023-05-29T00:59:52;15.43;;;10.23;;
76094;SDS011;64821;13.710;100.604;2023-05-29T01:00:58;17.15;;;11.38;;
76094;SDS011;64821;13.710;100.604;2023-05-29T01:02:02;16.30;;;11.13;;
76094;SDS011;64821;13.710;100.604;2023-05-29T01:03:06;17.40;;;10.73;;
76094;SDS011;64821;13.710;100.604;2023-05-29T01:04:10;16.55;;;11.35;;
76094;SDS011;64821;13.710;100.604;2023-05-29T01:05:15;16.33;;;11.87;;
76094;SDS011;64821;13.710;100.604;2023-05-29T01:06:19;16.42;;;10.75;;
76094;SDS011;64821;13.710;100.604;2023-05-29T01:07:23;16.15;;;11.18;;
76094;SDS011;64821;13.710;100.604;2023-05-29T01:08:27;16.23;;;11.10;;
76094;SDS011;64821;13.710;100.604;2023-05-29T01:09:31;17.40;;;11.75;;
76094;SDS011;64821;13.710;100.604;2023-05-29T01:10:34;16.93;;;10.73;;
76094;SDS011;64821;13.710;100.604;2023-05-29T01:11:41;16.45;;;10.52;;
76094;SDS011;64821;13.710;100.604;2023-05-29T01:12:53;17.95;;;11.63;;
76094;SDS011;64821;13.710;100.604;2023-05-29T01:14:05;17.30;;;11.50;;
76094;SDS011;64821;13.710;100.604;2023-05-29T01:15:17;16.85;;;11.27;;
76094;SDS011;64821;13.710;100.604;2023-05-29T01:16:31;16.13;;;11.53;;
76094;SDS011;64821;13.710;100.604;2023-05-29T01:17:43;17.45;;;10.98;;
76094;SDS011;64821;13.710;100.604;2023-05-29T01:18:57;16.58;;;11.95;;
76094;SDS011;64821;13.710;100.604;2023-05-29T01:20:11;16.27;;;11.13;;
76094;SDS011;64821;13.710;100.604;2023-05-29T01:21:27;14.75;;;11.00;;
76094;SDS011;64821;13.710;100.604;2023-05-29T01:22:50;17.97;;;10.97;;
76094;SDS011;64821;13.710;100.604;2023-05-29T01:24:11;15.82;;;10.50;;
76094;SDS011;64821;13.710;100.604;2023-05-29T01:25:21;15.00;;;10.48;;
76094;SDS011;64821;13.710;100.604;2023-05-29T01:26:45;15.48;;;10.27;;
76094;SDS011;64821;13.710;100.604;2023-05-29T01:27:51;17.00;;;11.65;;
76094;SDS011;64821;13.710;100.604;2023-05-29T01:28:57;19.70;;;10.83;;
76094;SDS011;64821;13.710;100.604;2023-05-29T01:30:05;18.15;;;11.23;;
76094;SDS011;64821;13.710;100.604;2023-05-29T01:31:10;16.45;;;10.88;;
76094;SDS011;64821;13.710;100.604;2023-05-29T01:32:17;16.52;;;10.85;;
76094;SDS011;64821;13.710;100.604;2023-05-29T01:33:21;18.33;;;11.10;;
76094;SDS011;64821;13.710;100.604;2023-05-29T01:34:25;17.50;;;10.33;;
76094;SDS011;64821;13.710;100.604;2023-05-29T01:35:28;14.18;;;9.55;;
76094;SDS011;64821;13.710;100.604;2023-05-29T01:36:33;15.23;;;9.63;;
76094;SDS011;64821;13.710;100.604;2023-05-29T01:37:37;13.68;;;9.32;;
76094;SDS011;64821;13.710;100.604;2023-05-29T01:38:41;14.65;;;9.68;;
76094;SDS011;64821;13.710;100.604;2023-05-29T01:39:44;16.43;;;10.23;;
76094;SDS011;64821;13.710;100.604;2023-05-29T01:40:48;16.33;;;9.65;;
76094;SDS011;64821;13.710;100.604;2023-05-29T01:41:53;14.73;;;10.27;;
76094;SDS011;64821;13.710;100.604;2023-05-29T01:42:58;16.02;;;10.43;;
76094;SDS011;64821;13.710;100.604;2023-05-29T01:44:02;13.48;;;10.57;;
76094;SDS011;64821;13.710;100.604;2023-05-29T01:45:10;17.60;;;10.40;;
76094;SDS011;64821;13.710;100.604;2023-05-29T01:46:14;16.65;;;10.40;;
76094;SDS011;64821;13.710;100.604;2023-05-29T01:47:20;15.95;;;11.25;;
76094;SDS011;64821;13.710;100.604;2023-05-29T01:48:24;16.80;;;11.50;;
76094;SDS011;64821;13.710;100.604;2023-05-29T01:49:28;15.45;;;10.15;;
76094;SDS011;64821;13.710;100.604;2023-05-29T01:50:33;14.10;;;9.70;;
76094;SDS011;64821;13.710;100.604;2023-05-29T01:51:38;16.45;;;10.57;;
76094;SDS011;64821;13.710;100.604;2023-05-29T01:52:42;15.70;;;10.15;;
76094;SDS011;64821;13.710;100.604;2023-05-29T01:53:46;16.50;;;10.45;;
76094;SDS011;64821;13.710;100.604;2023-05-29T01:54:49;15.88;;;10.23;;
76094;SDS011;64821;13.710;100.604;2023-05-29T01:55:53;16.47;;;10.47;;
76094;SDS011;64821;13.710;100.604;2023-05-29T01:56:59;15.48;;;9.75;;
76094;SDS011;64821;13.710;100.604;2023-05-29T01:58:03;13.80;;;10.38;;
76094;SDS011;64821;13.710;100.604;2023-05-29T01:59:08;16.00;;;10.02;;
76094;SDS011;64821;13.710;100.604;2023-05-29T02:00:15;13.40;;;9.57;;
76094;SDS011;64821;13.710;100.604;2023-05-29T02:01:20;14.60;;;9.63;;
76094;SDS011;64821;13.710;100.604;2023-05-29T02:02:24;14.25;;;9.52;;
76094;SDS011;64821;13.710;100.604;2023-05-29T02:03:28;14.13;;;9.00;;
76094;SDS011;64821;13.710;100.604;2023-05-29T02:04:32;13.27;;;9.23;;
76094;SDS011;64821;13.710;100.604;2023-05-29T02:05:36;13.88;;;9.48;;
76094;SDS011;64821;13.710;100.604;2023-05-29T02:06:40;13.63;;;9.00;;
76094;SDS011;64821;13.710;100.604;2023-05-29T02:07:43;13.80;;;9.23;;
76094;SDS011;64821;13.710;100.604;2023-05-29T02:08:47;12.15;;;9.05;;
76094;SDS011;64821;13.710;100.604;2023-05-29T02:09:51;15.10;;;9.50;;
76094;SDS011;64821;13.710;100.604;2023-05-29T02:10:55;15.38;;;10.35;;
76094;SDS011;64821;13.710;100.604;2023-05-29T02:12:00;14.83;;;9.80;;
76094;SDS011;64821;13.710;100.604;2023-05-29T02:13:04;15.30;;;9.77;;
76094;SDS011;64821;13.710;100.604;2023-05-29T02:14:07;12.52;;;9.23;;
76094;SDS011;64821;13.710;100.604;2023-05-29T02:15:11;11.63;;;7.95;;
76094;SDS011;64821;13.710;100.604;2023-05-29T02:16:15;13.55;;;8.38;;
76094;SDS011;64821;13.710;100.604;2023-05-29T02:17:18;12.40;;;8.40;;
76094;SDS011;64821;13.710;100.604;2023-05-29T02:18:22;12.88;;;8.77;;
76094;SDS011;64821;13.710;100.604;2023-05-29T02:19:26;13.48;;;8.88;;
76094;SDS011;64821;13.710;100.604;2023-05-29T02:20:30;14.65;;;8.45;;
76094;SDS011;64821;13.710;100.604;2023-05-29T02:21:33;12.98;;;8.15;;
76094;SDS011;64821;13.710;100.604;2023-05-29T02:22:37;12.83;;;8.53;;
76094;SDS011;64821;13.710;100.604;2023-05-29T02:23:41;12.05;;;8.50;;
76094;SDS011;64821;13.710;100.604;2023-05-29T02:24:44;15.15;;;8.88;;
76094;SDS011;64821;13.710;100.604;2023-05-29T02:25:48;15.88;;;9.25;;
76094;SDS011;64821;13.710;100.604;2023-05-29T02:26:52;12.38;;;8.20;;
76094;SDS011;64821;13.710;100.604;2023-05-29T02:27:57;12.90;;;7.87;;
76094;SDS011;64821;13.710;100.604;2023-05-29T02:29:01;13.32;;;8.10;;
76094;SDS011;64821;13.710;100.604;2023-05-29T02:30:06;13.43;;;8.45;;
76094;SDS011;64821;13.710;100.604;2023-05-29T02:31:10;12.77;;;8.13;;
76094;SDS011;64821;13.710;100.604;2023-05-29T02:32:14;11.68;;;8.00;;
76094;SDS011;64821;13.710;100.604;2023-05-29T02:33:17;12.93;;;8.17;;
76094;SDS011;64821;13.710;100.604;2023-05-29T02:34:21;13.90;;;8.18;;
76094;SDS011;64821;13.710;100.604;2023-05-29T02:35:25;13.73;;;8.45;;
76094;SDS011;64821;13.710;100.604;2023-05-29T02:36:28;11.73;;;7.72;;
76094;SDS011;64821;13.710;100.604;2023-05-29T02:37:32;13.50;;;8.75;;
76094;SDS011;64821;13.710;100.604;2023-05-29T02:38:36;12.83;;;8.33;;
76094;SDS011;64821;13.710;100.604;2023-05-29T02:39:39;14.40;;;8.20;;
76094;SDS011;64821;13.710;100.604;2023-05-29T02:40:43;13.20;;;8.35;;
76094;SDS011;64821;13.710;100.604;2023-05-29T02:41:47;13.00;;;8.27;;
76094;SDS011;64821;13.710;100.604;2023-05-29T02:42:50;13.82;;;7.78;;
76094;SDS011;64821;13.710;100.604;2023-05-29T02:43:56;12.50;;;7.80;;
76094;SDS011;64821;13.710;100.604;2023-05-29T02:44:59;12.02;;;8.18;;
76094;SDS011;64821;13.710;100.604;2023-05-29T02:46:03;12.82;;;8.25;;
76094;SDS011;64821;13.710;100.604;2023-05-29T02:47:07;12.48;;;7.93;;
76094;SDS011;64821;13.710;100.604;2023-05-29T02:48:11;12.32;;;8.35;;
76094;SDS011;64821;13.710;100.604;2023-05-29T02:49:14;12.57;;;7.53;;
76094;SDS011;64821;13.710;100.604;2023-05-29T02:50:18;14.23;;;8.25;;
76094;SDS011;64821;13.710;100.604;2023-05-29T02:51:22;12.95;;;7.60;;
76094;SDS011;64821;13.710;100.604;2023-05-29T02:52:25;11.85;;;7.97;;
76094;SDS011;64821;13.710;100.604;2023-05-29T02:53:29;12.23;;;8.38;;
76094;SDS011;64821;13.710;100.604;2023-05-29T02:54:33;11.57;;;7.67;;
76094;SDS011;64821;13.710;100.604;2023-05-29T02:55:37;12.68;;;7.90;;
76094;SDS011;64821;13.710;100.604;2023-05-29T02:56:41;15.48;;;8.60;;
76094;SDS011;64821;13.710;100.604;2023-05-29T02:57:45;14.35;;;7.88;;
76094;SDS011;64821;13.710;100.604;2023-05-29T02:58:49;11.48;;;7.60;;
76094;SDS011;64821;13.710;100.604;2023-05-29T02:59:54;12.80;;;7.90;;
76094;SDS011;64821;13.710;100.604;2023-05-29T03:00:58;12.10;;;7.35;;
76094;SDS011;64821;13.710;100.604;2023-05-29T03:02:02;11.05;;;7.68;;
76094;SDS011;64821;13.710;100.604;2023-05-29T03:03:05;14.48;;;7.93;;
76094;SDS011;64821;13.710;100.604;2023-05-29T03:04:09;11.52;;;7.47;;
76094;SDS011;64821;13.710;100.604;2023-05-29T03:05:13;11.77;;;7.93;;
76094;SDS011;64821;13.710;100.604;2023-05-29T03:06:17;13.02;;;7.07;;
76094;SDS011;64821;13.710;100.604;2023-05-29T03:07:20;11.60;;;7.97;;
76094;SDS011;64821;13.710;100.604;2023-05-29T03:08:24;12.57;;;8.13;;
76094;SDS011;64821;13.710;100.604;2023-05-29T03:09:28;12.43;;;8.38;;
76094;SDS011;64821;13.710;100.604;2023-05-29T03:10:32;12.33;;;7.23;;
76094;SDS011;64821;13.710;100.604;2023-05-29T03:11:35;11.35;;;8.20;;
76094;SDS011;64821;13.710;100.604;2023-05-29T03:12:39;14.85;;;8.98;;
76094;SDS011;64821;13.710;100.604;2023-05-29T03:13:43;14.80;;;8.30;;
76094;SDS011;64821;13.710;100.604;2023-05-29T03:14:46;11.80;;;8.38;;
76094;SDS011;64821;13.710;100.604;2023-05-29T03:15:52;13.07;;;8.50;;
76094;SDS011;64821;13.710;100.604;2023-05-29T03:16:55;12.35;;;7.95;;
76094;SDS011;64821;13.710;100.604;2023-05-29T03:17:59;13.23;;;8.07;;
76094;SDS011;64821;13.710;100.604;2023-05-29T03:19:03;10.50;;;7.45;;
76094;SDS011;64821;13.710;100.604;2023-05-29T03:20:07;11.65;;;7.97;;
76094;SDS011;64821;13.710;100.604;2023-05-29T03:21:11;13.70;;;8.43;;
76094;SDS011;64821;13.710;100.604;2023-05-29T03:22:15;13.40;;;8.45;;
76094;SDS011;64821;13.710;100.604;2023-05-29T03:23:19;12.93;;;8.32;;
76094;SDS011;64821;13.710;100.604;2023-05-29T03:24:22;13.50;;;8.23;;
76094;SDS011;64821;13.710;100.604;2023-05-29T03:25:26;11.90;;;8.68;;
76094;SDS011;64821;13.710;100.604;2023-05-29T03:26:30;13.63;;;8.57;;
76094;SDS011;64821;13.710;100.604;2023-05-29T03:27:34;13.25;;;7.90;;
76094;SDS011;64821;13.710;100.604;2023-05-29T03:28:37;13.30;;;8.25;;
76094;SDS011;64821;13.710;100.604;2023-05-29T03:29:41;14.32;;;9.10;;
76094;SDS011;64821;13.710;100.604;2023-05-29T03:30:45;12.55;;;8.10;;
76094;SDS011;64821;13.710;100.604;2023-05-29T03:31:50;14.93;;;7.83;;
76094;SDS011;64821;13.710;100.604;2023-05-29T03:32:54;16.17;;;8.50;;
76094;SDS011;64821;13.710;100.604;2023-05-29T03:33:58;13.77;;;7.93;;
76094;SDS011;64821;13.710;100.604;2023-05-29T03:35:02;13.60;;;7.30;;
76094;SDS011;64821;13.710;100.604;2023-05-29T03:36:06;13.00;;;7.57;;
76094;SDS011;64821;13.710;100.604;2023-05-29T03:37:10;13.00;;;7.93;;
76094;SDS011;64821;13.710;100.604;2023-05-29T03:38:14;14.88;;;7.72;;
76094;SDS011;64821;13.710;100.604;2023-05-29T03:39:17;11.80;;;7.60;;
76094;SDS011;64821;13.710;100.604;2023-05-29T03:40:21;12.52;;;8.00;;
76094;SDS011;64821;13.710;100.604;2023-05-29T03:41:25;12.40;;;8.15;;
76094;SDS011;64821;13.710;100.604;2023-05-29T03:42:28;12.40;;;8.77;;
76094;SDS011;64821;13.710;100.604;2023-05-29T03:43:32;12.55;;;8.02;;
76094;SDS011;64821;13.710;100.604;2023-05-29T03:44:36;12.13;;;7.63;;
76094;SDS011;64821;13.710;100.604;2023-05-29T03:45:40;11.23;;;7.55;;
76094;SDS011;64821;13.710;100.604;2023-05-29T03:46:43;11.98;;;6.75;;
76094;SDS011;64821;13.710;100.604;2023-05-29T03:47:49;11.17;;;6.73;;
76094;SDS011;64821;13.710;100.604;2023-05-29T03:48:52;10.82;;;7.15;;
76094;SDS011;64821;13.710;100.604;2023-05-29T03:49:56;12.35;;;7.20;;
76094;SDS011;64821;13.710;100.604;2023-05-29T03:51:00;13.40;;;7.30;;
76094;SDS011;64821;13.710;100.604;2023-05-29T03:52:04;13.02;;;7.72;;
76094;SDS011;64821;13.710;100.604;2023-05-29T03:53:08;12.40;;;7.50;;
76094;SDS011;64821;13.710;100.604;2023-05-29T03:54:11;11.63;;;7.45;;
76094;SDS011;64821;13.710;100.604;2023-05-29T03:55:15;11.27;;;7.35;;
76094;SDS011;64821;13.710;100.604;2023-05-29T03:56:19;12.90;;;7.63;;
76094;SDS011;64821;13.710;100.604;2023-05-29T03:57:23;13.10;;;7.47;;
76094;SDS011;64821;13.710;100.604;2023-05-29T03:58:26;12.80;;;7.70;;
76094;SDS011;64821;13.710;100.604;2023-05-29T03:59:30;11.40;;;7.18;;
76094;SDS011;64821;13.710;100.604;2023-05-29T04:00:34;11.95;;;7.50;;
76094;SDS011;64821;13.710;100.604;2023-05-29T04:01:38;13.43;;;7.47;;
76094;SDS011;64821;13.710;100.604;2023-05-29T04:02:42;11.60;;;7.20;;
76094;SDS011;64821;13.710;100.604;2023-05-29T04:03:47;12.67;;;7.57;;
76094;SDS011;64821;13.710;100.604;2023-05-29T04:04:51;12.77;;;7.65;;
76094;SDS011;64821;13.710;100.604;2023-05-29T04:05:55;12.55;;;8.60;;
76094;SDS011;64821;13.710;100.604;2023-05-29T04:06:59;13.68;;;8.68;;
76094;SDS011;64821;13.710;100.604;2023-05-29T04:08:02;14.15;;;8.63;;
76094;SDS011;64821;13.710;100.604;2023-05-29T04:09:17;13.57;;;8.23;;
76094;SDS011;64821;13.710;100.604;2023-05-29T04:10:20;14.70;;;8.98;;
76094;SDS011;64821;13.710;100.604;2023-05-29T04:11:24;12.70;;;8.20;;
76094;SDS011;64821;13.710;100.604;2023-05-29T04:12:28;15.60;;;8.50;;
76094;SDS011;64821;13.710;100.604;2023-05-29T04:13:31;18.40;;;9.32;;
76094;SDS011;64821;13.710;100.604;2023-05-29T04:14:35;16.50;;;8.60;;
76094;SDS011;64821;13.710;100.604;2023-05-29T04:15:39;18.08;;;10.18;;
76094;SDS011;64821;13.710;100.604;2023-05-29T04:16:43;16.75;;;10.13;;
76094;SDS011;64821;13.710;100.604;2023-05-29T04:17:47;16.60;;;9.68;;
76094;SDS011;64821;13.710;100.604;2023-05-29T04:18:52;14.50;;;8.68;;
76094;SDS011;64821;13.710;100.604;2023-05-29T04:19:56;15.07;;;8.77;;
76094;SDS011;64821;13.710;100.604;2023-05-29T04:20:59;14.88;;;9.00;;
76094;SDS011;64821;13.710;100.604;2023-05-29T04:22:03;13.77;;;8.63;;
76094;SDS011;64821;13.710;100.604;2023-05-29T04:23:07;16.27;;;8.63;;
76094;SDS011;64821;13.710;100.604;2023-05-29T04:24:11;17.58;;;9.10;;
76094;SDS011;64821;13.710;100.604;2023-05-29T04:25:15;16.97;;;9.73;;
76094;SDS011;64821;13.710;100.604;2023-05-29T04:26:19;18.25;;;9.95;;
76094;SDS011;64821;13.710;100.604;2023-05-29T04:27:24;14.63;;;9.27;;
76094;SDS011;64821;13.710;100.604;2023-05-29T04:28:30;16.58;;;10.20;;
76094;SDS011;64821;13.710;100.604;2023-05-29T04:29:34;18.10;;;10.40;;
76094;SDS011;64821;13.710;100.604;2023-05-29T04:30:38;16.63;;;9.63;;
76094;SDS011;64821;13.710;100.604;2023-05-29T04:31:42;18.98;;;10.32;;
76094;SDS011;64821;13.710;100.604;2023-05-29T04:32:45;15.57;;;9.07;;
76094;SDS011;64821;13.710;100.604;2023-05-29T04:33:49;14.75;;;9.43;;
76094;SDS011;64821;13.710;100.604;2023-05-29T04:34:57;15.23;;;8.82;;
76094;SDS011;64821;13.710;100.604;2023-05-29T04:36:00;16.83;;;8.83;;
76094;SDS011;64821;13.710;100.604;2023-05-29T04:37:04;14.65;;;9.77;;
76094;SDS011;64821;13.710;100.604;2023-05-29T04:38:08;15.13;;;9.15;;
76094;SDS011;64821;13.710;100.604;2023-05-29T04:39:12;13.30;;;8.63;;
76094;SDS011;64821;13.710;100.604;2023-05-29T04:40:16;14.60;;;9.13;;
76094;SDS011;64821;13.710;100.604;2023-05-29T04:41:21;12.20;;;8.40;;
76094;SDS011;64821;13.710;100.604;2023-05-29T04:42:25;14.65;;;8.98;;
76094;SDS011;64821;13.710;100.604;2023-05-29T04:43:29;12.55;;;8.02;;
76094;SDS011;64821;13.710;100.604;2023-05-29T04:44:32;13.43;;;8.35;;
76094;SDS011;64821;13.710;100.604;2023-05-29T04:45:36;17.83;;;9.40;;
76094;SDS011;64821;13.710;100.604;2023-05-29T04:46:40;14.53;;;8.83;;
76094;SDS011;64821;13.710;100.604;2023-05-29T04:47:45;15.20;;;9.10;;
76094;SDS011;64821;13.710;100.604;2023-05-29T04:48:49;15.85;;;9.80;;
76094;SDS011;64821;13.710;100.604;2023-05-29T04:49:54;13.10;;;8.40;;
76094;SDS011;64821;13.710;100.604;2023-05-29T04:50:59;15.70;;;9.32;;
76094;SDS011;64821;13.710;100.604;2023-05-29T20:03:30;17.42;;;12.35;;
76094;SDS011;64821;13.710;100.604;2023-05-29T20:04:34;17.70;;;12.73;;
76094;SDS011;64821;13.710;100.604;2023-05-29T20:05:37;18.00;;;12.50;;
76094;SDS011;64821;13.710;100.604;2023-05-29T20:06:41;19.15;;;12.75;;
76094;SDS011;64821;13.710;100.604;2023-05-29T20:07:45;18.15;;;12.48;;
76094;SDS011;64821;13.710;100.604;2023-05-29T20:08:49;17.90;;;12.60;;
76094;SDS011;64821;13.710;100.604;2023-05-29T20:09:53;17.20;;;12.38;;
76094;SDS011;64821;13.710;100.604;2023-05-29T20:10:56;16.27;;;12.07;;
76094;SDS011;64821;13.710;100.604;2023-05-29T20:12:01;17.63;;;12.02;;
76094;SDS011;64821;13.710;100.604;2023-05-29T20:13:05;17.13;;;12.07;;
76094;SDS011;64821;13.710;100.604;2023-05-29T20:14:08;15.88;;;11.45;;
76094;SDS011;64821;13.710;100.604;2023-05-29T20:15:12;15.77;;;11.73;;
76094;SDS011;64821;13.710;100.604;2023-05-29T20:16:16;16.93;;;11.93;;
76094;SDS011;64821;13.710;100.604;2023-05-29T20:17:20;17.90;;;12.20;;
76094;SDS011;64821;13.710;100.604;2023-05-29T20:18:25;16.88;;;11.57;;
76094;SDS011;64821;13.710;100.604;2023-05-29T20:19:29;17.60;;;12.48;;
76094;SDS011;64821;13.710;100.604;2023-05-29T20:20:32;19.50;;;13.10;;
76094;SDS011;64821;13.710;100.604;2023-05-29T20:21:36;18.00;;;12.30;;
76094;SDS011;64821;13.710;100.604;2023-05-29T20:22:40;20.17;;;12.90;;
76094;SDS011;64821;13.710;100.604;2023-05-29T20:23:44;19.55;;;13.30;;
76094;SDS011;64821;13.710;100.604;2023-05-29T20:24:47;18.23;;;12.85;;
76094;SDS011;64821;13.710;100.604;2023-05-29T20:25:51;16.90;;;12.27;;
76094;SDS011;64821;13.710;100.604;2023-05-29T20:26:55;17.23;;;12.30;;
76094;SDS011;64821;13.710;100.604;2023-05-29T20:27:58;20.52;;;12.70;;
76094;SDS011;64821;13.710;100.604;2023-05-29T20:29:02;18.50;;;12.30;;
76094;SDS011;64821;13.710;100.604;2023-05-29T20:30:06;18.02;;;12.93;;
76094;SDS011;64821;13.710;100.604;2023-05-29T20:31:11;18.88;;;12.98;;
76094;SDS011;64821;13.710;100.604;2023-05-29T20:32:14;18.10;;;12.30;;
76094;SDS011;64821;13.710;100.604;2023-05-29T20:33:18;18.55;;;12.45;;
76094;SDS011;64821;13.710;100.604;2023-05-29T20:34:24;18.00;;;12.30;;
76094;SDS011;64821;13.710;100.604;2023-05-29T20:35:27;17.08;;;12.65;;
76094;SDS011;64821;13.710;100.604;2023-05-29T20:36:32;18.30;;;13.02;;
76094;SDS011;64821;13.710;100.604;2023-05-29T20:37:35;17.60;;;11.90;;
76094;SDS011;64821;13.710;100.604;2023-05-29T20:38:39;18.95;;;12.50;;
76094;SDS011;64821;13.710;100.604;2023-05-29T20:39:43;17.80;;;12.60;;
76094;SDS011;64821;13.710;100.604;2023-05-29T20:40:46;17.63;;;12.25;;
76094;SDS011;64821;13.710;100.604;2023-05-29T20:41:50;18.20;;;12.30;;
76094;SDS011;64821;13.710;100.604;2023-05-29T20:42:54;19.43;;;11.97;;
76094;SDS011;64821;13.710;100.604;2023-05-29T20:43:58;16.65;;;11.93;;
76094;SDS011;64821;13.710;100.604;2023-05-29T20:45:01;19.63;;;12.77;;
76094;SDS011;64821;13.710;100.604;2023-05-29T20:46:06;17.52;;;12.25;;
76094;SDS011;64821;13.710;100.604;2023-05-29T20:47:09;18.98;;;11.93;;
76094;SDS011;64821;13.710;100.604;2023-05-29T20:48:13;18.70;;;12.33;;
76094;SDS011;64821;13.710;100.604;2023-05-29T20:49:17;19.30;;;12.63;;
76094;SDS011;64821;13.710;100.604;2023-05-29T20:50:23;17.10;;;12.68;;
76094;SDS011;64821;13.710;100.604;2023-05-29T20:51:27;16.02;;;12.18;;
76094;SDS011;64821;13.710;100.604;2023-05-29T20:52:30;18.35;;;12.27;;
76094;SDS011;64821;13.710;100.604;2023-05-29T20:53:34;19.50;;;12.67;;
76094;SDS011;64821;13.710;100.604;2023-05-29T20:54:39;19.10;;;12.32;;
76094;SDS011;64821;13.710;100.604;2023-05-29T20:55:43;17.85;;;12.40;;
76094;SDS011;64821;13.710;100.604;2023-05-29T20:56:47;18.48;;;12.07;;
76094;SDS011;64821;13.710;100.604;2023-05-29T20:57:50;19.10;;;12.95;;
76094;SDS011;64821;13.710;100.604;2023-05-29T20:58:54;19.17;;;13.23;;
76094;SDS011;64821;13.710;100.604;2023-05-29T20:59:58;20.30;;;12.60;;
76094;SDS011;64821;13.710;100.604;2023-05-29T21:01:02;16.17;;;12.07;;
76094;SDS011;64821;13.710;100.604;2023-05-29T21:02:06;18.80;;;12.57;;
76094;SDS011;64821;13.710;100.604;2023-05-29T21:03:11;17.23;;;12.75;;
76094;SDS011;64821;13.710;100.604;2023-05-29T21:04:15;17.60;;;12.60;;
76094;SDS011;64821;13.710;100.604;2023-05-29T21:05:18;20.15;;;13.10;;
76094;SDS011;64821;13.710;100.604;2023-05-29T21:06:24;18.60;;;12.95;;
76094;SDS011;64821;13.710;100.604;2023-05-29T21:07:27;18.48;;;12.77;;
76094;SDS011;64821;13.710;100.604;2023-05-29T21:08:31;18.65;;;12.18;;
76094;SDS011;64821;13.710;100.604;2023-05-29T21:09:35;20.43;;;12.53;;
76094;SDS011;64821;13.710;100.604;2023-05-29T21:10:39;20.17;;;13.32;;
76094;SDS011;64821;13.710;100.604;2023-05-29T21:11:43;18.30;;;12.32;;
76094;SDS011;64821;13.710;100.604;2023-05-29T21:12:46;19.17;;;13.00;;
76094;SDS011;64821;13.710;100.604;2023-05-29T21:13:50;17.27;;;12.60;;
76094;SDS011;64821;13.710;100.604;2023-05-29T21:14:54;18.20;;;12.70;;
76094;SDS011;64821;13.710;100.604;2023-05-29T21:15:58;17.20;;;12.27;;
76094;SDS011;64821;13.710;100.604;2023-05-29T21:17:02;20.15;;;13.10;;
76094;SDS011;64821;13.710;100.604;2023-05-29T21:18:06;16.20;;;12.48;;
76094;SDS011;64821;13.710;100.604;2023-05-29T21:19:10;19.77;;;12.82;;
76094;SDS011;64821;13.710;100.604;2023-05-29T21:20:13;20.00;;;13.17;;